sensor_id;sensor_type;location;lat;lon;timestamp;P1;durP1;ratioP1;P2;durP2;ratioP2
75552;SDS011;64136;53.118;17.996;2023-07-13T00:00:52;7.20;;;5.40;;
75552;SDS011;64136;53.118;17.996;2023-07-13T00:04:05;8.10;;;6.30;;
75552;SDS011;64136;53.118;17.996;2023-07-13T00:09:35;10.30;;;6.60;;
75552;SDS011;64136;53.118;17.996;2023-07-13T00:15:42;11.20;;;6.50;;
75552;SDS011;64136;53.118;17.996;2023-07-13T00:21:32;10.30;;;6.70;;
75552;SDS011;64136;53.118;17.996;2023-07-13T00:31:47;9.70;;;6.40;;
75552;SDS011;64136;53.118;17.996;2023-07-13T00:38:32;10.20;;;6.70;;
75552;SDS011;64136;53.118;17.996;2023-07-13T00:40:58;8.50;;;6.30;;
75552;SDS011;64136;53.118;17.996;2023-07-13T00:43:26;10.10;;;6.90;;
75552;SDS011;64136;53.118;17.996;2023-07-13T00:48:42;7.70;;;5.50;;
75552;SDS011;64136;53.118;17.996;2023-07-13T00:59:29;6.90;;;5.90;;
75552;SDS011;64136;53.118;17.996;2023-07-13T01:06:54;7.50;;;6.30;;
75552;SDS011;64136;53.118;17.996;2023-07-13T01:16:58;8.50;;;6.20;;
75552;SDS011;64136;53.118;17.996;2023-07-13T01:19:55;7.30;;;5.20;;
75552;SDS011;64136;53.118;17.996;2023-07-13T01:26:35;7.10;;;5.80;;
75552;SDS011;64136;53.118;17.996;2023-07-13T01:29:07;6.90;;;5.30;;
75552;SDS011;64136;53.118;17.996;2023-07-13T01:31:39;7.30;;;5.90;;
75552;SDS011;64136;53.118;17.996;2023-07-13T01:46:46;7.90;;;6.50;;
75552;SDS011;64136;53.118;17.996;2023-07-13T01:49:28;12.30;;;7.00;;
75552;SDS011;64136;53.118;17.996;2023-07-13T01:52:16;8.10;;;4.60;;
75552;SDS011;64136;53.118;17.996;2023-07-13T01:54:43;6.90;;;4.90;;
75552;SDS011;64136;53.118;17.996;2023-07-13T02:02:19;8.60;;;6.70;;
75552;SDS011;64136;53.118;17.996;2023-07-13T02:04:47;7.80;;;5.80;;
75552;SDS011;64136;53.118;17.996;2023-07-13T02:17:26;9.20;;;6.20;;
75552;SDS011;64136;53.118;17.996;2023-07-13T02:24:21;7.50;;;5.70;;
75552;SDS011;64136;53.118;17.996;2023-07-13T02:27:10;7.10;;;4.70;;
75552;SDS011;64136;53.118;17.996;2023-07-13T02:30:00;9.20;;;5.90;;
75552;SDS011;64136;53.118;17.996;2023-07-13T02:36:44;9.00;;;5.70;;
75552;SDS011;64136;53.118;17.996;2023-07-13T02:39:17;7.90;;;5.60;;
75552;SDS011;64136;53.118;17.996;2023-07-13T02:42:07;8.60;;;5.90;;
75552;SDS011;64136;53.118;17.996;2023-07-13T02:44:39;6.50;;;5.80;;
75552;SDS011;64136;53.118;17.996;2023-07-13T02:47:36;8.90;;;7.20;;
75552;SDS011;64136;53.118;17.996;2023-07-13T02:52:44;9.50;;;6.80;;
75552;SDS011;64136;53.118;17.996;2023-07-13T02:55:17;8.00;;;6.40;;
75552;SDS011;64136;53.118;17.996;2023-07-13T03:05:17;7.10;;;5.60;;
75552;SDS011;64136;53.118;17.996;2023-07-13T03:07:45;10.30;;;6.40;;
75552;SDS011;64136;53.118;17.996;2023-07-13T03:10:27;7.40;;;5.30;;
75552;SDS011;64136;53.118;17.996;2023-07-13T03:20:54;9.20;;;5.90;;
75552;SDS011;64136;53.118;17.996;2023-07-13T03:26:53;7.50;;;6.40;;
75552;SDS011;64136;53.118;17.996;2023-07-13T03:30:44;8.60;;;6.50;;
75552;SDS011;64136;53.118;17.996;2023-07-13T03:36:55;6.70;;;5.40;;
75552;SDS011;64136;53.118;17.996;2023-07-13T03:42:23;9.20;;;6.60;;
75552;SDS011;64136;53.118;17.996;2023-07-13T03:47:57;6.00;;;4.20;;
75552;SDS011;64136;53.118;17.996;2023-07-13T03:50:30;7.70;;;5.60;;
75552;SDS011;64136;53.118;17.996;2023-07-13T03:53:07;9.80;;;6.10;;
75552;SDS011;64136;53.118;17.996;2023-07-13T03:55:46;7.50;;;5.20;;
75552;SDS011;64136;53.118;17.996;2023-07-13T03:58:33;8.30;;;5.90;;
75552;SDS011;64136;53.118;17.996;2023-07-13T04:04:52;6.90;;;5.20;;
75552;SDS011;64136;53.118;17.996;2023-07-13T04:07:22;8.30;;;5.50;;
75552;SDS011;64136;53.118;17.996;2023-07-13T04:09:55;10.60;;;7.40;;
75552;SDS011;64136;53.118;17.996;2023-07-13T04:12:34;7.50;;;4.60;;
75552;SDS011;64136;53.118;17.996;2023-07-13T04:24:27;9.10;;;5.80;;
75552;SDS011;64136;53.118;17.996;2023-07-13T04:35:50;7.40;;;5.70;;
75552;SDS011;64136;53.118;17.996;2023-07-13T04:42:12;8.30;;;6.50;;
75552;SDS011;64136;53.118;17.996;2023-07-13T04:51:14;7.70;;;5.40;;
75552;SDS011;64136;53.118;17.996;2023-07-13T04:57:27;5.70;;;4.40;;
75552;SDS011;64136;53.118;17.996;2023-07-13T04:59:59;8.20;;;5.50;;
75552;SDS011;64136;53.118;17.996;2023-07-13T05:02:37;5.60;;;4.20;;
75552;SDS011;64136;53.118;17.996;2023-07-13T05:05:15;6.80;;;4.40;;
75552;SDS011;64136;53.118;17.996;2023-07-13T05:07:44;7.40;;;4.70;;
75552;SDS011;64136;53.118;17.996;2023-07-13T05:10:14;8.40;;;4.60;;
75552;SDS011;64136;53.118;17.996;2023-07-13T05:13:04;6.80;;;4.30;;
75552;SDS011;64136;53.118;17.996;2023-07-13T05:15:30;6.40;;;4.40;;
75552;SDS011;64136;53.118;17.996;2023-07-13T05:17:56;5.40;;;4.10;;
75552;SDS011;64136;53.118;17.996;2023-07-13T05:20:23;7.20;;;4.40;;
75552;SDS011;64136;53.118;17.996;2023-07-13T05:22:49;5.70;;;3.50;;
75552;SDS011;64136;53.118;17.996;2023-07-13T05:25:16;9.10;;;4.20;;
75552;SDS011;64136;53.118;17.996;2023-07-13T05:27:42;6.30;;;4.00;;
75552;SDS011;64136;53.118;17.996;2023-07-13T05:30:11;6.90;;;3.60;;
75552;SDS011;64136;53.118;17.996;2023-07-13T05:32:37;5.00;;;3.40;;
75552;SDS011;64136;53.118;17.996;2023-07-13T05:35:04;6.50;;;4.00;;
75552;SDS011;64136;53.118;17.996;2023-07-13T05:37:31;7.10;;;3.70;;
75552;SDS011;64136;53.118;17.996;2023-07-13T05:39:57;4.70;;;3.20;;
75552;SDS011;64136;53.118;17.996;2023-07-13T05:42:23;3.30;;;2.90;;
75552;SDS011;64136;53.118;17.996;2023-07-13T05:44:49;4.60;;;3.10;;
75552;SDS011;64136;53.118;17.996;2023-07-13T05:47:15;5.30;;;3.30;;
75552;SDS011;64136;53.118;17.996;2023-07-13T05:49:41;8.80;;;3.30;;
75552;SDS011;64136;53.118;17.996;2023-07-13T05:52:08;8.20;;;3.10;;
75552;SDS011;64136;53.118;17.996;2023-07-13T05:54:34;2.70;;;1.90;;
75552;SDS011;64136;53.118;17.996;2023-07-13T05:57:01;6.10;;;3.00;;
75552;SDS011;64136;53.118;17.996;2023-07-13T05:59:30;5.50;;;2.50;;
75552;SDS011;64136;53.118;17.996;2023-07-13T06:01:56;3.20;;;2.00;;
75552;SDS011;64136;53.118;17.996;2023-07-13T06:04:22;3.30;;;1.40;;
75552;SDS011;64136;53.118;17.996;2023-07-13T06:06:48;2.80;;;1.40;;
75552;SDS011;64136;53.118;17.996;2023-07-13T06:09:14;3.60;;;1.90;;
75552;SDS011;64136;53.118;17.996;2023-07-13T06:11:41;4.80;;;2.30;;
75552;SDS011;64136;53.118;17.996;2023-07-13T06:14:08;3.20;;;1.20;;
75552;SDS011;64136;53.118;17.996;2023-07-13T06:16:34;4.10;;;1.90;;
75552;SDS011;64136;53.118;17.996;2023-07-13T06:19:01;2.40;;;1.50;;
75552;SDS011;64136;53.118;17.996;2023-07-13T06:21:27;5.70;;;2.30;;
75552;SDS011;64136;53.118;17.996;2023-07-13T06:23:53;3.60;;;1.90;;
75552;SDS011;64136;53.118;17.996;2023-07-13T06:26:20;6.70;;;2.20;;
75552;SDS011;64136;53.118;17.996;2023-07-13T06:28:47;5.20;;;2.50;;
75552;SDS011;64136;53.118;17.996;2023-07-13T06:31:13;5.20;;;2.40;;
75552;SDS011;64136;53.118;17.996;2023-07-13T06:33:40;4.80;;;2.30;;
75552;SDS011;64136;53.118;17.996;2023-07-13T06:36:07;5.00;;;2.20;;
75552;SDS011;64136;53.118;17.996;2023-07-13T06:38:35;4.30;;;2.20;;
75552;SDS011;64136;53.118;17.996;2023-07-13T06:41:02;3.90;;;1.90;;
75552;SDS011;64136;53.118;17.996;2023-07-13T06:43:47;4.00;;;2.30;;
75552;SDS011;64136;53.118;17.996;2023-07-13T06:46:13;4.80;;;2.30;;
75552;SDS011;64136;53.118;17.996;2023-07-13T06:48:40;5.90;;;2.20;;
75552;SDS011;64136;53.118;17.996;2023-07-13T06:51:06;3.80;;;1.90;;
75552;SDS011;64136;53.118;17.996;2023-07-13T06:53:32;4.10;;;2.00;;
75552;SDS011;64136;53.118;17.996;2023-07-13T06:55:58;5.40;;;2.10;;
75552;SDS011;64136;53.118;17.996;2023-07-13T06:58:25;3.10;;;1.80;;
75552;SDS011;64136;53.118;17.996;2023-07-13T07:00:51;3.00;;;1.70;;
75552;SDS011;64136;53.118;17.996;2023-07-13T07:03:18;2.90;;;1.50;;
75552;SDS011;64136;53.118;17.996;2023-07-13T07:05:44;2.40;;;1.20;;
75552;SDS011;64136;53.118;17.996;2023-07-13T07:08:10;3.40;;;1.50;;
75552;SDS011;64136;53.118;17.996;2023-07-13T07:10:36;6.00;;;2.50;;
75552;SDS011;64136;53.118;17.996;2023-07-13T07:13:03;2.40;;;1.30;;
75552;SDS011;64136;53.118;17.996;2023-07-13T07:15:30;3.40;;;1.90;;
75552;SDS011;64136;53.118;17.996;2023-07-13T07:17:56;2.50;;;1.80;;
75552;SDS011;64136;53.118;17.996;2023-07-13T07:20:22;5.00;;;1.80;;
75552;SDS011;64136;53.118;17.996;2023-07-13T07:22:48;1.40;;;1.30;;
75552;SDS011;64136;53.118;17.996;2023-07-13T07:25:18;3.30;;;1.40;;
75552;SDS011;64136;53.118;17.996;2023-07-13T07:32:16;2.50;;;1.40;;
75552;SDS011;64136;53.118;17.996;2023-07-13T07:39:11;2.50;;;1.60;;
75552;SDS011;64136;53.118;17.996;2023-07-13T07:49:25;4.50;;;1.80;;
75552;SDS011;64136;53.118;17.996;2023-07-13T07:52:01;4.60;;;2.00;;
75552;SDS011;64136;53.118;17.996;2023-07-13T07:54:27;3.50;;;1.30;;
75552;SDS011;64136;53.118;17.996;2023-07-13T07:56:56;4.50;;;1.50;;
75552;SDS011;64136;53.118;17.996;2023-07-13T07:59:22;3.80;;;1.70;;
75552;SDS011;64136;53.118;17.996;2023-07-13T08:01:48;4.20;;;1.80;;
75552;SDS011;64136;53.118;17.996;2023-07-13T08:04:16;2.70;;;2.10;;
75552;SDS011;64136;53.118;17.996;2023-07-13T08:06:42;3.50;;;1.30;;
75552;SDS011;64136;53.118;17.996;2023-07-13T08:09:08;2.30;;;1.30;;
75552;SDS011;64136;53.118;17.996;2023-07-13T08:11:35;2.20;;;1.50;;
75552;SDS011;64136;53.118;17.996;2023-07-13T08:14:01;9.30;;;2.20;;
75552;SDS011;64136;53.118;17.996;2023-07-13T08:16:27;4.30;;;1.50;;
75552;SDS011;64136;53.118;17.996;2023-07-13T08:18:54;3.60;;;1.40;;
75552;SDS011;64136;53.118;17.996;2023-07-13T08:21:20;5.00;;;1.50;;
75552;SDS011;64136;53.118;17.996;2023-07-13T08:23:47;2.30;;;1.60;;
75552;SDS011;64136;53.118;17.996;2023-07-13T08:26:13;3.10;;;1.40;;
75552;SDS011;64136;53.118;17.996;2023-07-13T08:28:40;3.20;;;1.20;;
75552;SDS011;64136;53.118;17.996;2023-07-13T08:31:07;3.10;;;1.50;;
75552;SDS011;64136;53.118;17.996;2023-07-13T08:33:34;2.10;;;1.20;;
75552;SDS011;64136;53.118;17.996;2023-07-13T08:36:04;2.60;;;1.10;;
75552;SDS011;64136;53.118;17.996;2023-07-13T08:38:31;1.70;;;0.90;;
75552;SDS011;64136;53.118;17.996;2023-07-13T08:40:58;2.80;;;1.30;;
75552;SDS011;64136;53.118;17.996;2023-07-13T08:43:28;12.10;;;2.00;;
75552;SDS011;64136;53.118;17.996;2023-07-13T08:46:04;5.00;;;1.80;;
75552;SDS011;64136;53.118;17.996;2023-07-13T08:48:39;4.00;;;1.90;;
75552;SDS011;64136;53.118;17.996;2023-07-13T08:51:23;5.30;;;1.90;;
75552;SDS011;64136;53.118;17.996;2023-07-13T08:54:00;4.50;;;1.70;;
75552;SDS011;64136;53.118;17.996;2023-07-13T08:56:29;3.20;;;1.30;;
75552;SDS011;64136;53.118;17.996;2023-07-13T08:58:58;7.30;;;1.80;;
75552;SDS011;64136;53.118;17.996;2023-07-13T09:01:40;4.30;;;1.60;;
75552;SDS011;64136;53.118;17.996;2023-07-13T09:04:27;2.60;;;1.70;;
75552;SDS011;64136;53.118;17.996;2023-07-13T09:07:16;5.70;;;1.70;;
75552;SDS011;64136;53.118;17.996;2023-07-13T09:15:22;3.00;;;1.20;;
75552;SDS011;64136;53.118;17.996;2023-07-13T09:18:10;3.10;;;1.50;;
75552;SDS011;64136;53.118;17.996;2023-07-13T09:23:16;3.80;;;1.60;;
75552;SDS011;64136;53.118;17.996;2023-07-13T09:25:46;3.70;;;2.40;;
75552;SDS011;64136;53.118;17.996;2023-07-13T09:28:18;3.30;;;1.70;;
75552;SDS011;64136;53.118;17.996;2023-07-13T09:30:50;2.00;;;1.20;;
75552;SDS011;64136;53.118;17.996;2023-07-13T09:33:29;2.80;;;1.30;;
75552;SDS011;64136;53.118;17.996;2023-07-13T09:35:57;3.70;;;1.70;;
75552;SDS011;64136;53.118;17.996;2023-07-13T09:47:31;1.90;;;1.30;;
75552;SDS011;64136;53.118;17.996;2023-07-13T09:50:02;1.90;;;1.20;;
75552;SDS011;64136;53.118;17.996;2023-07-13T09:55:37;2.50;;;1.30;;
75552;SDS011;64136;53.118;17.996;2023-07-13T10:00:54;3.70;;;1.60;;
75552;SDS011;64136;53.118;17.996;2023-07-13T10:03:25;2.40;;;1.20;;
75552;SDS011;64136;53.118;17.996;2023-07-13T10:05:54;2.60;;;1.30;;
75552;SDS011;64136;53.118;17.996;2023-07-13T10:08:28;2.10;;;1.10;;
75552;SDS011;64136;53.118;17.996;2023-07-13T10:11:08;4.20;;;1.30;;
75552;SDS011;64136;53.118;17.996;2023-07-13T10:13:44;4.90;;;1.40;;
75552;SDS011;64136;53.118;17.996;2023-07-13T10:16:15;1.80;;;1.00;;
75552;SDS011;64136;53.118;17.996;2023-07-13T10:21:17;2.60;;;1.20;;
75552;SDS011;64136;53.118;17.996;2023-07-13T10:23:54;2.60;;;1.20;;
75552;SDS011;64136;53.118;17.996;2023-07-13T10:26:26;2.10;;;1.30;;
75552;SDS011;64136;53.118;17.996;2023-07-13T10:29:01;2.30;;;1.30;;
75552;SDS011;64136;53.118;17.996;2023-07-13T10:31:33;3.20;;;1.50;;
75552;SDS011;64136;53.118;17.996;2023-07-13T10:34:00;2.00;;;1.10;;
75552;SDS011;64136;53.118;17.996;2023-07-13T10:36:34;2.30;;;1.20;;
75552;SDS011;64136;53.118;17.996;2023-07-13T10:39:19;2.00;;;1.10;;
75552;SDS011;64136;53.118;17.996;2023-07-13T10:41:46;3.80;;;1.50;;
75552;SDS011;64136;53.118;17.996;2023-07-13T10:44:20;2.90;;;1.20;;
75552;SDS011;64136;53.118;17.996;2023-07-13T10:46:53;3.00;;;1.80;;
75552;SDS011;64136;53.118;17.996;2023-07-13T10:49:30;1.70;;;1.10;;
75552;SDS011;64136;53.118;17.996;2023-07-13T10:51:58;2.30;;;1.30;;
75552;SDS011;64136;53.118;17.996;2023-07-13T10:54:30;4.90;;;1.80;;
75552;SDS011;64136;53.118;17.996;2023-07-13T10:59:46;1.50;;;1.20;;
75552;SDS011;64136;53.118;17.996;2023-07-13T11:02:17;1.50;;;1.10;;
75552;SDS011;64136;53.118;17.996;2023-07-13T11:04:49;1.90;;;1.20;;
75552;SDS011;64136;53.118;17.996;2023-07-13T11:07:23;3.00;;;1.10;;
75552;SDS011;64136;53.118;17.996;2023-07-13T11:09:58;2.80;;;1.40;;
75552;SDS011;64136;53.118;17.996;2023-07-13T11:12:27;2.20;;;1.30;;
75552;SDS011;64136;53.118;17.996;2023-07-13T11:15:26;2.00;;;1.20;;
75552;SDS011;64136;53.118;17.996;2023-07-13T11:17:55;3.50;;;1.40;;
75552;SDS011;64136;53.118;17.996;2023-07-13T11:20:33;4.80;;;1.60;;
75552;SDS011;64136;53.118;17.996;2023-07-13T11:23:09;1.50;;;1.00;;
75552;SDS011;64136;53.118;17.996;2023-07-13T11:25:45;2.00;;;1.10;;
75552;SDS011;64136;53.118;17.996;2023-07-13T11:28:16;2.00;;;1.20;;
75552;SDS011;64136;53.118;17.996;2023-07-13T11:31:01;4.00;;;1.40;;
75552;SDS011;64136;53.118;17.996;2023-07-13T11:33:31;2.90;;;1.30;;
75552;SDS011;64136;53.118;17.996;2023-07-13T11:36:20;4.50;;;1.60;;
75552;SDS011;64136;53.118;17.996;2023-07-13T11:38:55;6.40;;;1.70;;
75552;SDS011;64136;53.118;17.996;2023-07-13T11:41:27;2.40;;;1.50;;
75552;SDS011;64136;53.118;17.996;2023-07-13T11:44:14;3.80;;;1.90;;
75552;SDS011;64136;53.118;17.996;2023-07-13T11:46:44;3.50;;;1.60;;
75552;SDS011;64136;53.118;17.996;2023-07-13T11:51:44;3.20;;;1.70;;
75552;SDS011;64136;53.118;17.996;2023-07-13T11:54:15;4.30;;;2.00;;
75552;SDS011;64136;53.118;17.996;2023-07-13T11:56:48;4.80;;;1.60;;
75552;SDS011;64136;53.118;17.996;2023-07-13T11:59:16;3.50;;;1.90;;
75552;SDS011;64136;53.118;17.996;2023-07-13T12:01:45;2.60;;;1.40;;
75552;SDS011;64136;53.118;17.996;2023-07-13T12:04:19;4.40;;;2.30;;
75552;SDS011;64136;53.118;17.996;2023-07-13T12:06:56;4.60;;;2.20;;
75552;SDS011;64136;53.118;17.996;2023-07-13T12:09:22;3.80;;;1.70;;
75552;SDS011;64136;53.118;17.996;2023-07-13T12:11:51;4.40;;;1.50;;
75552;SDS011;64136;53.118;17.996;2023-07-13T12:14:18;2.20;;;1.60;;
75552;SDS011;64136;53.118;17.996;2023-07-13T12:16:45;2.90;;;1.20;;
75552;SDS011;64136;53.118;17.996;2023-07-13T12:19:18;1.90;;;1.30;;
75552;SDS011;64136;53.118;17.996;2023-07-13T12:21:47;4.30;;;1.80;;
75552;SDS011;64136;53.118;17.996;2023-07-13T12:24:16;2.40;;;1.30;;
75552;SDS011;64136;53.118;17.996;2023-07-13T12:26:44;2.90;;;1.40;;
75552;SDS011;64136;53.118;17.996;2023-07-13T12:29:16;3.00;;;1.10;;
75552;SDS011;64136;53.118;17.996;2023-07-13T12:31:45;1.70;;;1.00;;
75552;SDS011;64136;53.118;17.996;2023-07-13T12:34:14;2.70;;;1.20;;
75552;SDS011;64136;53.118;17.996;2023-07-13T12:36:46;1.10;;;1.00;;
75552;SDS011;64136;53.118;17.996;2023-07-13T12:39:19;3.00;;;1.10;;
75552;SDS011;64136;53.118;17.996;2023-07-13T12:41:48;2.40;;;1.70;;
75552;SDS011;64136;53.118;17.996;2023-07-13T12:44:16;3.10;;;1.50;;
75552;SDS011;64136;53.118;17.996;2023-07-13T12:49:27;0.70;;;0.70;;
75552;SDS011;64136;53.118;17.996;2023-07-13T12:51:56;3.50;;;1.40;;
75552;SDS011;64136;53.118;17.996;2023-07-13T12:54:27;1.90;;;1.60;;
75552;SDS011;64136;53.118;17.996;2023-07-13T12:56:55;2.40;;;1.50;;
75552;SDS011;64136;53.118;17.996;2023-07-13T12:59:24;1.80;;;1.30;;
75552;SDS011;64136;53.118;17.996;2023-07-13T13:01:55;3.30;;;1.40;;
75552;SDS011;64136;53.118;17.996;2023-07-13T13:04:21;4.40;;;1.90;;
75552;SDS011;64136;53.118;17.996;2023-07-13T13:06:47;5.40;;;1.70;;
75552;SDS011;64136;53.118;17.996;2023-07-13T13:09:15;3.00;;;1.90;;
75552;SDS011;64136;53.118;17.996;2023-07-13T13:11:44;3.00;;;1.10;;
75552;SDS011;64136;53.118;17.996;2023-07-13T13:14:10;3.60;;;1.70;;
75552;SDS011;64136;53.118;17.996;2023-07-13T13:19:16;3.00;;;1.80;;
75552;SDS011;64136;53.118;17.996;2023-07-13T13:21:45;2.30;;;1.60;;
75552;SDS011;64136;53.118;17.996;2023-07-13T13:24:16;3.20;;;2.20;;
75552;SDS011;64136;53.118;17.996;2023-07-13T13:26:46;1.50;;;1.30;;
75552;SDS011;64136;53.118;17.996;2023-07-13T13:29:17;4.00;;;1.90;;
75552;SDS011;64136;53.118;17.996;2023-07-13T13:31:46;2.70;;;1.90;;
75552;SDS011;64136;53.118;17.996;2023-07-13T13:34:13;2.80;;;1.40;;
75552;SDS011;64136;53.118;17.996;2023-07-13T13:36:41;3.90;;;1.60;;
75552;SDS011;64136;53.118;17.996;2023-07-13T13:41:50;2.10;;;1.20;;
75552;SDS011;64136;53.118;17.996;2023-07-13T13:44:18;2.30;;;1.80;;
75552;SDS011;64136;53.118;17.996;2023-07-13T13:46:46;3.90;;;2.00;;
75552;SDS011;64136;53.118;17.996;2023-07-13T13:49:17;1.60;;;1.50;;
75552;SDS011;64136;53.118;17.996;2023-07-13T13:51:48;3.90;;;2.10;;
75552;SDS011;64136;53.118;17.996;2023-07-13T13:54:16;2.70;;;1.80;;
75552;SDS011;64136;53.118;17.996;2023-07-13T13:56:44;3.10;;;1.60;;
75552;SDS011;64136;53.118;17.996;2023-07-13T13:59:13;2.30;;;1.60;;
75552;SDS011;64136;53.118;17.996;2023-07-13T14:01:40;5.10;;;2.10;;
75552;SDS011;64136;53.118;17.996;2023-07-13T14:04:13;2.20;;;1.60;;
75552;SDS011;64136;53.118;17.996;2023-07-13T14:06:44;3.10;;;1.60;;
75552;SDS011;64136;53.118;17.996;2023-07-13T14:09:11;4.10;;;1.90;;
75552;SDS011;64136;53.118;17.996;2023-07-13T14:12:01;2.20;;;1.60;;
75552;SDS011;64136;53.118;17.996;2023-07-13T14:14:27;3.90;;;1.90;;
75552;SDS011;64136;53.118;17.996;2023-07-13T14:16:54;1.70;;;1.60;;
75552;SDS011;64136;53.118;17.996;2023-07-13T14:19:22;2.90;;;1.50;;
75552;SDS011;64136;53.118;17.996;2023-07-13T14:21:48;3.40;;;1.90;;
75552;SDS011;64136;53.118;17.996;2023-07-13T14:24:15;2.90;;;1.80;;
75552;SDS011;64136;53.118;17.996;2023-07-13T14:26:41;4.10;;;1.70;;
75552;SDS011;64136;53.118;17.996;2023-07-13T14:31:40;3.80;;;1.90;;
75552;SDS011;64136;53.118;17.996;2023-07-13T14:34:07;3.40;;;1.80;;
75552;SDS011;64136;53.118;17.996;2023-07-13T14:36:34;2.40;;;1.50;;
75552;SDS011;64136;53.118;17.996;2023-07-13T14:39:09;2.50;;;1.70;;
75552;SDS011;64136;53.118;17.996;2023-07-13T14:41:38;2.10;;;1.40;;
75552;SDS011;64136;53.118;17.996;2023-07-13T14:44:11;4.10;;;1.50;;
75552;SDS011;64136;53.118;17.996;2023-07-13T14:46:39;2.90;;;1.50;;
75552;SDS011;64136;53.118;17.996;2023-07-13T14:51:52;1.60;;;1.10;;
75552;SDS011;64136;53.118;17.996;2023-07-13T14:54:18;1.00;;;0.90;;
75552;SDS011;64136;53.118;17.996;2023-07-13T14:56:44;1.00;;;0.90;;
75552;SDS011;64136;53.118;17.996;2023-07-13T14:59:10;3.90;;;0.90;;
75552;SDS011;64136;53.118;17.996;2023-07-13T15:01:38;1.40;;;0.90;;
75552;SDS011;64136;53.118;17.996;2023-07-13T15:04:06;3.00;;;0.90;;
75552;SDS011;64136;53.118;17.996;2023-07-13T15:06:50;1.50;;;1.00;;
75552;SDS011;64136;53.118;17.996;2023-07-13T15:09:26;2.40;;;1.30;;
75552;SDS011;64136;53.118;17.996;2023-07-13T15:11:54;1.00;;;0.80;;
75552;SDS011;64136;53.118;17.996;2023-07-13T15:14:21;1.40;;;0.70;;
75552;SDS011;64136;53.118;17.996;2023-07-13T15:16:49;1.30;;;0.70;;
75552;SDS011;64136;53.118;17.996;2023-07-13T15:19:17;1.60;;;1.00;;
75552;SDS011;64136;53.118;17.996;2023-07-13T15:21:45;2.10;;;0.90;;
75552;SDS011;64136;53.118;17.996;2023-07-13T15:24:13;1.50;;;0.80;;
75552;SDS011;64136;53.118;17.996;2023-07-13T15:26:39;2.00;;;0.80;;
75552;SDS011;64136;53.118;17.996;2023-07-13T15:29:05;1.30;;;0.90;;
75552;SDS011;64136;53.118;17.996;2023-07-13T15:31:32;1.20;;;0.80;;
75552;SDS011;64136;53.118;17.996;2023-07-13T15:33:59;1.50;;;1.00;;
75552;SDS011;64136;53.118;17.996;2023-07-13T15:36:26;2.70;;;1.00;;
75552;SDS011;64136;53.118;17.996;2023-07-13T15:38:53;1.10;;;0.80;;
75552;SDS011;64136;53.118;17.996;2023-07-13T15:41:22;1.90;;;0.70;;
75552;SDS011;64136;53.118;17.996;2023-07-13T15:43:51;1.20;;;0.70;;
75552;SDS011;64136;53.118;17.996;2023-07-13T15:46:19;1.70;;;1.00;;
75552;SDS011;64136;53.118;17.996;2023-07-13T15:48:49;3.10;;;0.90;;
75552;SDS011;64136;53.118;17.996;2023-07-13T15:53:57;2.10;;;1.20;;
75552;SDS011;64136;53.118;17.996;2023-07-13T15:56:29;1.40;;;0.80;;
75552;SDS011;64136;53.118;17.996;2023-07-13T15:58:59;1.20;;;0.80;;
75552;SDS011;64136;53.118;17.996;2023-07-13T16:01:26;2.20;;;1.00;;
75552;SDS011;64136;53.118;17.996;2023-07-13T16:03:53;1.30;;;0.90;;
75552;SDS011;64136;53.118;17.996;2023-07-13T16:06:20;0.80;;;0.70;;
75552;SDS011;64136;53.118;17.996;2023-07-13T16:08:51;4.40;;;1.10;;
75552;SDS011;64136;53.118;17.996;2023-07-13T16:11:23;2.20;;;1.00;;
75552;SDS011;64136;53.118;17.996;2023-07-13T16:13:52;2.90;;;0.90;;
75552;SDS011;64136;53.118;17.996;2023-07-13T16:16:21;1.80;;;0.80;;
75552;SDS011;64136;53.118;17.996;2023-07-13T16:18:52;0.60;;;0.60;;
75552;SDS011;64136;53.118;17.996;2023-07-13T16:21:25;2.50;;;1.10;;
75552;SDS011;64136;53.118;17.996;2023-07-13T16:23:58;1.10;;;0.80;;
75552;SDS011;64136;53.118;17.996;2023-07-13T16:26:29;2.90;;;0.90;;
75552;SDS011;64136;53.118;17.996;2023-07-13T16:29:10;1.20;;;0.80;;
75552;SDS011;64136;53.118;17.996;2023-07-13T16:31:43;5.00;;;1.10;;
75552;SDS011;64136;53.118;17.996;2023-07-13T16:34:21;1.00;;;0.90;;
75552;SDS011;64136;53.118;17.996;2023-07-13T16:36:47;0.90;;;0.70;;
75552;SDS011;64136;53.118;17.996;2023-07-13T16:39:13;2.80;;;0.70;;
75552;SDS011;64136;53.118;17.996;2023-07-13T16:41:41;1.10;;;0.80;;
75552;SDS011;64136;53.118;17.996;2023-07-13T16:46:37;2.30;;;0.90;;
75552;SDS011;64136;53.118;17.996;2023-07-13T16:49:07;2.40;;;0.90;;
75552;SDS011;64136;53.118;17.996;2023-07-13T16:51:45;1.50;;;0.90;;
75552;SDS011;64136;53.118;17.996;2023-07-13T16:54:12;0.90;;;0.70;;
75552;SDS011;64136;53.118;17.996;2023-07-13T16:56:39;1.90;;;1.70;;
75552;SDS011;64136;53.118;17.996;2023-07-13T16:59:13;1.60;;;1.30;;
75552;SDS011;64136;53.118;17.996;2023-07-13T17:01:41;1.30;;;0.90;;
75552;SDS011;64136;53.118;17.996;2023-07-13T17:04:08;1.40;;;0.70;;
75552;SDS011;64136;53.118;17.996;2023-07-13T17:07:15;1.90;;;0.90;;
75552;SDS011;64136;53.118;17.996;2023-07-13T17:09:44;0.90;;;0.70;;
75552;SDS011;64136;53.118;17.996;2023-07-13T17:12:11;1.40;;;0.80;;
75552;SDS011;64136;53.118;17.996;2023-07-13T17:17:09;2.00;;;0.80;;
75552;SDS011;64136;53.118;17.996;2023-07-13T17:19:41;1.80;;;1.10;;
75552;SDS011;64136;53.118;17.996;2023-07-13T17:22:10;1.30;;;0.80;;
75552;SDS011;64136;53.118;17.996;2023-07-13T17:24:43;1.30;;;0.90;;
75552;SDS011;64136;53.118;17.996;2023-07-13T17:27:10;1.40;;;0.90;;
75552;SDS011;64136;53.118;17.996;2023-07-13T17:29:37;1.90;;;1.10;;
75552;SDS011;64136;53.118;17.996;2023-07-13T17:32:04;1.10;;;0.80;;
75552;SDS011;64136;53.118;17.996;2023-07-13T17:34:31;2.30;;;0.90;;
75552;SDS011;64136;53.118;17.996;2023-07-13T17:37:00;1.00;;;0.80;;
75552;SDS011;64136;53.118;17.996;2023-07-13T17:39:26;1.40;;;0.80;;
75552;SDS011;64136;53.118;17.996;2023-07-13T17:41:54;2.40;;;1.00;;
75552;SDS011;64136;53.118;17.996;2023-07-13T17:44:20;1.90;;;0.90;;
75552;SDS011;64136;53.118;17.996;2023-07-13T17:46:46;1.50;;;0.90;;
75552;SDS011;64136;53.118;17.996;2023-07-13T17:49:15;1.40;;;1.10;;
75552;SDS011;64136;53.118;17.996;2023-07-13T17:54:13;2.50;;;0.80;;
75552;SDS011;64136;53.118;17.996;2023-07-13T17:56:40;2.80;;;1.20;;
75552;SDS011;64136;53.118;17.996;2023-07-13T17:59:06;1.60;;;1.00;;
75552;SDS011;64136;53.118;17.996;2023-07-13T18:01:32;4.20;;;1.10;;
75552;SDS011;64136;53.118;17.996;2023-07-13T18:03:58;3.30;;;1.00;;
75552;SDS011;64136;53.118;17.996;2023-07-13T18:06:29;4.60;;;1.70;;
75552;SDS011;64136;53.118;17.996;2023-07-13T18:09:00;2.50;;;1.30;;
75552;SDS011;64136;53.118;17.996;2023-07-13T18:11:32;2.90;;;1.50;;
75552;SDS011;64136;53.118;17.996;2023-07-13T18:13:58;3.00;;;1.30;;
75552;SDS011;64136;53.118;17.996;2023-07-13T18:16:25;1.70;;;1.30;;
75552;SDS011;64136;53.118;17.996;2023-07-13T18:18:55;2.30;;;1.10;;
75552;SDS011;64136;53.118;17.996;2023-07-13T18:21:23;2.40;;;1.20;;
75552;SDS011;64136;53.118;17.996;2023-07-13T18:23:51;2.20;;;1.30;;
75552;SDS011;64136;53.118;17.996;2023-07-13T18:26:18;2.20;;;1.10;;
75552;SDS011;64136;53.118;17.996;2023-07-13T18:28:45;1.10;;;1.00;;
75552;SDS011;64136;53.118;17.996;2023-07-13T18:31:33;1.70;;;1.20;;
75552;SDS011;64136;53.118;17.996;2023-07-13T18:34:01;1.30;;;0.90;;
75552;SDS011;64136;53.118;17.996;2023-07-13T18:36:28;1.30;;;1.20;;
75552;SDS011;64136;53.118;17.996;2023-07-13T18:38:55;3.50;;;1.30;;